Terminal Aerodrome Forecast
Issued by NWS Charleston, SC

Current Version | Previous Version | Text Only | Print | Product List | Glossary On
Versions: 1 2 3 4 5 6 7 8 9 10 11 12 13 14 15 16 17 18 19 20 21 22
000
FTUS42 KCHS 221200 AAA
TAFCHS
TAF AMD
KCHS 221241Z 2213/2312 VRB03KT P6SM VCSH SCT005 SCT035
      TEMPO 2213/2217 SHRA
     FM221700 16007KT P6SM VCTS SCT020 BKN035CB
     FM222100 17006KT P6SM SCT025 BKN050=

USA.gov is the U.S. government's official web portal to all federal, state and local government web resources and services.